createdAt,value
2022-10-18T00:01:25.777Z,65.40
2022-10-18T00:03:54.802Z,65.40
2022-10-18T00:06:23.595Z,65.50
2022-10-18T00:08:52.622Z,65.60
2022-10-18T00:11:19.420Z,65.60
2022-10-18T00:13:48.813Z,65.60
2022-10-18T00:16:20.674Z,65.60
2022-10-18T00:18:49.660Z,65.60
2022-10-18T00:21:20.948Z,65.60
2022-10-18T00:23:52.180Z,65.60
2022-10-18T00:26:28.609Z,65.70
2022-10-18T00:29:02.348Z,65.90
2022-10-18T00:31:33.830Z,65.90
2022-10-18T00:34:04.750Z,65.70
2022-10-18T00:36:36.912Z,65.80
2022-10-18T00:39:08.561Z,65.90
2022-10-18T00:41:38.036Z,66.10
2022-10-18T00:44:27.790Z,66.10
2022-10-18T00:47:03.798Z,66.60
2022-10-18T00:49:43.100Z,66.30
2022-10-18T00:52:25.987Z,66.60
2022-10-18T00:54:57.699Z,66.80
2022-10-18T00:57:25.922Z,66.40
2022-10-18T00:59:54.146Z,66.40
2022-10-18T01:02:21.692Z,66.50
2022-10-18T01:04:51.052Z,66.60
2022-10-18T01:08:06.914Z,66.70
2022-10-18T01:11:21.696Z,67.40
2022-10-18T01:14:22.384Z,67.30
2022-10-18T01:17:08.148Z,67.40
2022-10-18T01:20:26.479Z,67.60
2022-10-18T01:23:18.209Z,67.50
2022-10-18T01:26:17.879Z,67.50
2022-10-18T01:29:28.255Z,67.80
2022-10-18T01:32:06.637Z,67.80
2022-10-18T01:34:40.323Z,67.60
2022-10-18T01:37:16.326Z,67.60
2022-10-18T01:39:48.944Z,67.80
2022-10-18T01:42:20.827Z,67.60
2022-10-18T01:44:52.510Z,67.80
2022-10-18T01:47:22.455Z,67.70
2022-10-18T01:49:49.181Z,67.80
2022-10-18T01:52:21.373Z,67.80
2022-10-18T01:54:49.092Z,67.70
2022-10-18T01:58:13.378Z,67.70
2022-10-18T02:00:50.727Z,67.80
2022-10-18T02:03:20.111Z,67.90
2022-10-18T02:06:07.780Z,68.10
2022-10-18T02:08:57.209Z,68.60
2022-10-18T02:11:29.650Z,68.40
2022-10-18T02:14:18.926Z,68.30
2022-10-18T02:17:00.487Z,68.90
2022-10-18T02:19:54.994Z,68.10
2022-10-18T02:22:30.187Z,68.80
2022-10-18T02:25:10.287Z,68.30
2022-10-18T02:27:38.068Z,68.50
2022-10-18T02:30:06.487Z,68.20
2022-10-18T02:33:03.224Z,68.20
2022-10-18T02:35:39.953Z,68.90
2022-10-18T02:38:12.440Z,68.40
2022-10-18T02:40:39.252Z,68.40
2022-10-18T02:43:06.849Z,68.50
2022-10-18T02:45:34.198Z,68.60
2022-10-18T02:48:03.421Z,68.60
2022-10-18T02:50:30.109Z,68.60
2022-10-18T02:52:59.608Z,68.60
2022-10-18T02:55:33.413Z,68.70
2022-10-18T02:58:05.005Z,68.70
2022-10-18T03:00:33.994Z,68.70
2022-10-18T03:03:00.957Z,68.80
2022-10-18T03:05:27.720Z,68.70
2022-10-18T03:07:59.548Z,68.80
2022-10-18T03:10:26.232Z,69.00
2022-10-18T03:12:55.542Z,68.90
2022-10-18T03:15:24.496Z,68.90
2022-10-18T03:17:53.344Z,68.80
2022-10-18T03:20:24.598Z,68.80
2022-10-18T03:22:51.441Z,68.90
2022-10-18T03:25:18.189Z,69.00
2022-10-18T03:27:47.376Z,69.10
2022-10-18T03:30:14.109Z,69.30
2022-10-18T03:32:44.124Z,69.20
2022-10-18T03:35:10.935Z,69.20
2022-10-18T03:37:40.182Z,69.00
2022-10-18T03:40:08.156Z,69.00
2022-10-18T03:42:37.637Z,69.20
2022-10-18T03:45:05.345Z,69.40
2022-10-18T03:47:32.046Z,69.40
2022-10-18T03:50:05.930Z,69.40
2022-10-18T03:52:33.048Z,69.50
2022-10-18T03:55:00.047Z,69.60
2022-10-18T03:57:26.932Z,69.80
2022-10-18T03:59:58.285Z,70.10
2022-10-18T04:02:25.493Z,70.20
2022-10-18T04:04:52.546Z,70.40
2022-10-18T04:07:19.286Z,70.50
2022-10-18T04:09:45.967Z,70.60
2022-10-18T04:12:15.210Z,70.80
2022-10-18T04:14:43.932Z,71.10
2022-10-18T04:17:13.094Z,71.00
2022-10-18T04:19:40.941Z,71.10
2022-10-18T04:22:09.271Z,71.20
2022-10-18T04:24:38.460Z,71.30
2022-10-18T04:27:09.471Z,71.30
2022-10-18T04:29:38.567Z,71.50
2022-10-18T04:32:05.442Z,71.60
2022-10-18T04:34:34.222Z,71.60
2022-10-18T04:37:00.980Z,71.60
2022-10-18T04:39:30.305Z,71.60
2022-10-18T04:41:59.516Z,71.80
2022-10-18T04:44:26.286Z,71.90
2022-10-18T04:46:52.984Z,71.70
2022-10-18T04:49:22.059Z,71.90
2022-10-18T04:51:50.885Z,72.00
2022-10-18T04:54:17.652Z,72.10
2022-10-18T04:56:44.362Z,72.20
2022-10-18T04:59:15.657Z,72.20
2022-10-18T05:01:47.420Z,72.40
2022-10-18T05:04:14.376Z,72.30
2022-10-18T05:06:43.452Z,72.40
2022-10-18T05:09:10.191Z,72.50
2022-10-18T05:11:36.913Z,72.60
2022-10-18T05:14:03.857Z,72.60
2022-10-18T05:16:31.936Z,72.70
2022-10-18T05:18:58.742Z,72.80
2022-10-18T05:21:25.589Z,72.90
2022-10-18T05:23:59.899Z,72.90
2022-10-18T05:26:29.384Z,73.10
2022-10-18T05:28:56.793Z,73.00
2022-10-18T05:31:23.556Z,73.00
2022-10-18T05:33:50.253Z,72.90
2022-10-18T05:36:19.245Z,73.00
2022-10-18T05:38:50.642Z,73.10
2022-10-18T05:41:17.367Z,73.10
2022-10-18T05:43:44.142Z,73.10
2022-10-18T05:46:15.625Z,73.10
2022-10-18T05:48:44.603Z,73.20
2022-10-18T05:51:11.929Z,73.30
2022-10-18T05:53:41.110Z,73.40
2022-10-18T05:56:14.344Z,73.50
2022-10-18T05:58:42.949Z,73.60
2022-10-18T06:01:12.440Z,73.60
2022-10-18T06:03:39.435Z,73.60
2022-10-18T06:06:12.834Z,73.70
2022-10-18T06:08:43.630Z,73.70
2022-10-18T06:11:16.858Z,73.70
2022-10-18T06:13:46.437Z,73.80
2022-10-18T06:16:18.670Z,73.60
2022-10-18T06:18:54.466Z,73.50
2022-10-18T06:21:25.717Z,73.50
2022-10-18T06:24:00.310Z,73.40
2022-10-18T06:26:30.562Z,73.60
2022-10-18T06:29:02.063Z,73.50
2022-10-18T06:31:31.084Z,73.60
2022-10-18T06:34:00.835Z,73.70
2022-10-18T06:36:28.006Z,73.80
2022-10-18T06:39:00.480Z,73.90
2022-10-18T06:41:27.308Z,74.00
2022-10-18T06:43:57.408Z,74.10
2022-10-18T06:46:25.902Z,74.20
2022-10-18T06:48:54.880Z,74.20
2022-10-18T06:51:26.171Z,74.20
2022-10-18T06:54:06.158Z,74.20
2022-10-18T06:56:42.078Z,74.20
2022-10-18T06:59:16.072Z,74.00
2022-10-18T07:01:47.638Z,74.20
2022-10-18T07:04:14.483Z,74.10
2022-10-18T07:06:41.314Z,74.00
2022-10-18T07:09:10.178Z,74.10
2022-10-18T07:11:41.767Z,74.10
2022-10-18T07:14:14.023Z,74.20
2022-10-18T07:16:45.389Z,74.30
2022-10-18T07:19:14.968Z,74.30
2022-10-18T07:21:46.505Z,74.30
2022-10-18T07:24:13.373Z,74.40
2022-10-18T07:26:45.483Z,74.60
2022-10-18T07:29:13.030Z,74.90
2022-10-18T07:31:44.552Z,74.80
2022-10-18T07:34:15.991Z,75.20
2022-10-18T07:36:45.132Z,75.00
2022-10-18T07:39:16.455Z,75.00
2022-10-18T07:41:43.278Z,75.00
2022-10-18T07:44:12.485Z,74.90
2022-10-18T07:46:41.792Z,75.00
2022-10-18T07:49:08.513Z,75.00
2022-10-18T07:51:39.926Z,74.80
2022-10-18T07:54:06.649Z,74.80
2022-10-18T07:56:35.570Z,74.90
2022-10-18T07:59:06.978Z,75.00
2022-10-18T08:01:34.659Z,75.00
2022-10-18T08:04:07.514Z,75.00
2022-10-18T08:06:43.390Z,75.10
2022-10-18T08:09:12.333Z,75.10
2022-10-18T08:11:41.399Z,75.30
2022-10-18T08:14:10.692Z,75.20
2022-10-18T08:16:39.762Z,75.40
2022-10-18T08:19:09.129Z,75.40
2022-10-18T08:21:36.007Z,75.50
2022-10-18T08:24:02.775Z,75.50
2022-10-18T08:26:36.575Z,75.50
2022-10-18T08:29:22.549Z,75.60
2022-10-18T08:31:54.363Z,75.50
2022-10-18T08:34:23.382Z,75.40
2022-10-18T08:36:52.660Z,75.50
2022-10-18T08:39:19.372Z,75.20
2022-10-18T08:42:26.813Z,75.20
2022-10-18T08:44:57.637Z,75.50
2022-10-18T08:47:37.635Z,75.10
2022-10-18T08:50:23.920Z,75.60
2022-10-18T08:53:16.623Z,75.80
2022-10-18T08:55:52.521Z,75.70
2022-10-18T08:58:24.789Z,75.40
2022-10-18T09:01:22.170Z,75.40
2022-10-18T09:04:07.181Z,75.80
2022-10-18T09:07:16.381Z,75.50
2022-10-18T09:10:01.455Z,76.00
2022-10-18T09:13:08.470Z,76.10
2022-10-18T09:16:02.364Z,76.40
2022-10-18T09:18:40.195Z,76.30
2022-10-18T09:21:32.088Z,76.40
2022-10-18T09:24:12.352Z,75.90
2022-10-18T09:26:54.671Z,75.70
2022-10-18T09:30:23.444Z,76.20
2022-10-18T09:33:15.160Z,76.10
2022-10-18T09:35:57.647Z,75.90
2022-10-18T09:38:32.485Z,75.70
2022-10-18T09:41:19.138Z,75.50
2022-10-18T09:44:03.238Z,75.20
2022-10-18T09:46:43.430Z,75.40
2022-10-18T09:49:36.781Z,75.00
2022-10-18T09:52:18.038Z,75.20
2022-10-18T09:54:59.043Z,74.90
2022-10-18T09:57:59.598Z,74.80
2022-10-18T10:00:38.409Z,74.80
2022-10-18T10:03:16.523Z,74.70
2022-10-18T10:05:48.674Z,74.90
2022-10-18T10:08:20.204Z,74.80
2022-10-18T10:10:50.288Z,74.80
2022-10-18T10:13:27.732Z,74.70
2022-10-18T10:16:00.176Z,74.70
2022-10-18T10:18:34.734Z,74.60
2022-10-18T10:21:06.856Z,74.60
2022-10-18T10:24:07.281Z,74.60
2022-10-18T10:26:38.757Z,74.80
2022-10-18T10:29:51.351Z,74.80
2022-10-18T10:32:22.767Z,75.20
2022-10-18T10:34:53.184Z,74.70
2022-10-18T10:37:38.295Z,74.70
2022-10-18T10:40:20.487Z,75.10
2022-10-18T10:43:36.418Z,74.90
2022-10-18T10:46:18.883Z,74.90
2022-10-18T10:49:27.534Z,75.00
2022-10-18T10:51:43.886Z,74.70
2022-10-18T10:54:26.300Z,74.60
2022-10-18T10:57:12.823Z,74.60
2022-10-18T11:00:04.977Z,74.70
2022-10-18T11:02:34.922Z,74.50
2022-10-18T11:05:26.944Z,74.30
2022-10-18T11:08:10.093Z,74.60
2022-10-18T11:10:56.529Z,74.80
2022-10-18T11:13:57.050Z,74.90
2022-10-18T11:17:04.219Z,74.70
2022-10-18T11:20:13.801Z,74.90
2022-10-18T11:22:56.418Z,75.20
2022-10-18T11:25:35.737Z,75.50
2022-10-18T11:28:21.929Z,75.00
2022-10-18T11:31:10.227Z,74.90
2022-10-18T11:34:07.662Z,75.50
2022-10-18T11:37:26.680Z,75.00
2022-10-18T11:40:04.029Z,75.00
2022-10-18T11:42:40.258Z,75.00
2022-10-18T11:45:44.352Z,74.60
2022-10-18T11:48:53.413Z,74.50
2022-10-18T11:52:06.687Z,74.60
2022-10-18T11:54:45.966Z,74.30
2022-10-18T11:58:00.380Z,74.20
2022-10-18T12:00:42.201Z,74.00
2022-10-18T12:03:41.779Z,73.60
2022-10-18T12:06:22.306Z,73.70
2022-10-18T12:08:59.690Z,73.50
2022-10-18T12:11:46.910Z,73.50
2022-10-18T12:14:34.974Z,73.30
2022-10-18T12:17:40.736Z,73.60
2022-10-18T12:20:15.143Z,73.90
2022-10-18T12:23:02.459Z,73.70
2022-10-18T12:25:33.882Z,73.90
2022-10-18T12:28:32.191Z,74.10
2022-10-18T12:31:28.448Z,72.50
2022-10-18T12:34:04.580Z,72.10
2022-10-18T12:36:55.624Z,71.80
2022-10-18T12:39:43.313Z,72.10
2022-10-18T12:42:33.503Z,72.80
2022-10-18T12:45:27.451Z,72.80
2022-10-18T12:48:00.057Z,71.90
2022-10-18T12:50:32.214Z,71.40
2022-10-18T12:53:02.868Z,70.50
2022-10-18T12:55:46.507Z,70.30
2022-10-18T12:58:28.937Z,69.30
2022-10-18T13:01:02.102Z,68.70
2022-10-18T13:03:41.033Z,68.60
2022-10-18T13:06:10.051Z,67.50
2022-10-18T13:08:43.301Z,68.10
2022-10-18T13:11:10.078Z,67.70
2022-10-18T13:14:23.322Z,68.40
2022-10-18T13:17:31.409Z,67.90
2022-10-18T13:20:27.053Z,68.20
2022-10-18T13:23:30.786Z,68.40
2022-10-18T13:26:22.650Z,68.70
2022-10-18T13:29:06.281Z,68.80
2022-10-18T13:31:59.305Z,68.80
2022-10-18T13:34:33.232Z,69.80
2022-10-18T13:37:20.709Z,70.40
2022-10-18T13:39:48.353Z,70.40
2022-10-18T13:42:14.990Z,71.00
2022-10-18T13:44:47.586Z,70.70
2022-10-18T13:47:34.630Z,70.20
2022-10-18T13:50:09.207Z,68.10
2022-10-18T13:53:09.187Z,69.00
2022-10-18T13:55:45.755Z,68.30
2022-10-18T13:58:34.289Z,68.90
2022-10-18T14:01:52.934Z,67.70
2022-10-18T14:05:10.574Z,68.40
2022-10-18T14:07:47.195Z,67.70
2022-10-18T14:11:03.084Z,68.20
2022-10-18T14:13:54.206Z,67.30
2022-10-18T14:16:47.778Z,67.30
2022-10-18T14:19:20.633Z,67.60
2022-10-18T14:22:21.865Z,67.60
2022-10-18T14:24:59.124Z,66.90
2022-10-18T14:27:35.958Z,66.80
2022-10-18T14:30:22.016Z,67.20
2022-10-18T14:32:55.279Z,66.70
2022-10-18T14:35:33.841Z,67.00
2022-10-18T14:38:02.097Z,67.10
2022-10-18T14:40:40.078Z,67.20
2022-10-18T14:43:20.727Z,66.70
2022-10-18T14:45:47.448Z,67.20
2022-10-18T14:48:21.869Z,66.50
2022-10-18T14:51:00.410Z,66.70
2022-10-18T14:53:39.074Z,66.60
2022-10-18T14:56:08.135Z,66.10
2022-10-18T14:58:42.365Z,66.10
2022-10-18T15:01:25.425Z,65.70
2022-10-18T15:04:06.932Z,65.60
2022-10-18T15:06:36.147Z,66.00
2022-10-18T15:09:06.104Z,66.10
2022-10-18T15:11:35.585Z,66.10
2022-10-18T15:14:12.915Z,66.10
2022-10-18T15:16:43.374Z,66.20
2022-10-18T15:19:18.255Z,66.40
2022-10-18T15:25:15.072Z,66.30
2022-10-18T15:27:53.406Z,66.40
2022-10-18T15:30:27.129Z,66.60
2022-10-18T15:32:55.293Z,66.50
2022-10-18T15:35:34.628Z,66.60
2022-10-18T15:38:28.588Z,66.50
2022-10-18T15:40:57.970Z,66.50
2022-10-18T15:43:27.659Z,66.90
2022-10-18T15:46:06.361Z,67.00
2022-10-18T15:48:45.206Z,67.00
2022-10-18T15:51:50.261Z,67.00
2022-10-18T15:54:29.852Z,67.00
2022-10-18T15:57:06.698Z,67.40
2022-10-18T15:59:33.526Z,67.40
2022-10-18T16:02:02.625Z,67.50
2022-10-18T16:04:35.530Z,67.40
2022-10-18T16:07:06.871Z,67.50
2022-10-18T16:09:36.052Z,67.50
2022-10-18T16:12:04.490Z,67.50
2022-10-18T16:14:31.773Z,67.50
2022-10-18T16:17:07.534Z,67.60
2022-10-18T16:19:36.890Z,67.50
2022-10-18T16:22:06.595Z,67.50
2022-10-18T16:24:36.339Z,67.60
2022-10-18T16:27:03.184Z,67.70
2022-10-18T16:29:33.489Z,67.70
2022-10-18T16:32:02.870Z,67.80
2022-10-18T16:34:31.959Z,67.90
2022-10-18T16:37:01.294Z,67.90
2022-10-18T16:39:30.026Z,68.00
2022-10-18T16:41:59.015Z,68.00
2022-10-18T16:44:26.094Z,68.10
2022-10-18T16:46:56.263Z,68.20
2022-10-18T16:49:26.153Z,68.20
2022-10-18T16:51:56.430Z,68.30
2022-10-18T16:54:23.539Z,68.30
2022-10-18T16:56:52.710Z,68.40
2022-10-18T16:59:29.067Z,68.50
2022-10-18T17:02:04.723Z,68.70
2022-10-18T17:04:31.504Z,68.60
2022-10-18T17:07:04.702Z,68.70
2022-10-18T17:09:36.897Z,68.80
2022-10-18T17:12:03.940Z,68.90
2022-10-18T17:14:33.134Z,69.00
2022-10-18T17:17:00.049Z,69.00
2022-10-18T17:19:26.773Z,69.00
2022-10-18T17:21:53.485Z,69.20
2022-10-18T17:24:20.235Z,69.20
2022-10-18T17:26:46.912Z,69.30
2022-10-18T17:29:16.051Z,69.30
2022-10-18T17:31:45.263Z,69.40
2022-10-18T17:34:21.422Z,69.40
2022-10-18T17:36:48.783Z,69.60
2022-10-18T17:39:20.292Z,69.60
2022-10-18T17:41:52.570Z,69.70
2022-10-18T17:44:19.274Z,69.90
2022-10-18T17:46:48.485Z,69.90
2022-10-18T17:49:21.970Z,70.00
2022-10-18T17:51:51.377Z,70.10
2022-10-18T17:54:23.274Z,70.10
2022-10-18T17:56:54.497Z,70.10
2022-10-18T17:59:21.408Z,70.10
2022-10-18T18:01:50.759Z,70.10
2022-10-18T18:04:17.556Z,70.30
2022-10-18T18:06:45.366Z,70.30
2022-10-18T18:09:16.661Z,70.40
2022-10-18T18:11:47.247Z,70.50
2022-10-18T18:14:15.965Z,70.50
2022-10-18T18:16:46.131Z,70.60
2022-10-18T18:19:23.972Z,70.60
2022-10-18T18:21:53.543Z,70.50
2022-10-18T18:24:24.602Z,70.60
2022-10-18T18:26:55.676Z,70.70
2022-10-18T18:29:25.134Z,70.80
2022-10-18T18:31:56.997Z,70.80
2022-10-18T18:34:23.782Z,70.80
2022-10-18T18:36:52.568Z,70.80
2022-10-18T18:39:35.664Z,70.80
2022-10-18T18:42:03.882Z,70.90
2022-10-18T18:44:32.619Z,70.80
2022-10-18T18:47:00.639Z,70.80
2022-10-18T18:49:27.676Z,70.80
2022-10-18T18:51:56.749Z,70.90
2022-10-18T18:54:24.953Z,70.90
2022-10-18T18:56:51.674Z,70.90
2022-10-18T18:59:21.126Z,70.90
2022-10-18T19:01:47.875Z,70.90
2022-10-18T19:04:17.143Z,70.90
2022-10-18T19:06:48.964Z,71.00
2022-10-18T19:09:20.437Z,71.10
2022-10-18T19:11:53.670Z,71.10
2022-10-18T19:16:54.621Z,71.10
2022-10-18T19:19:26.160Z,71.20
2022-10-18T19:22:03.549Z,71.80
2022-10-18T19:24:30.952Z,71.20
2022-10-18T19:27:04.541Z,71.30
2022-10-18T19:29:39.790Z,71.40
2022-10-18T19:32:14.829Z,71.60
2022-10-18T19:34:43.974Z,71.60
2022-10-18T19:37:13.267Z,71.60
2022-10-18T19:39:42.729Z,71.60
2022-10-18T19:42:17.431Z,71.70
2022-10-18T19:44:47.646Z,71.60
2022-10-18T19:47:16.629Z,71.60
2022-10-18T19:49:46.152Z,71.60
2022-10-18T19:52:17.748Z,71.60
2022-10-18T19:54:48.525Z,71.70
2022-10-18T19:57:20.306Z,71.70
2022-10-18T19:59:49.257Z,71.70
2022-10-18T20:02:18.561Z,71.60
2022-10-18T20:04:47.570Z,71.60
2022-10-18T20:07:16.687Z,71.60
2022-10-18T20:09:43.460Z,71.60
2022-10-18T20:12:12.368Z,71.60
2022-10-18T20:14:41.353Z,71.60
2022-10-18T20:17:12.917Z,71.70
2022-10-18T20:19:43.190Z,71.70
2022-10-18T20:22:09.885Z,71.70
2022-10-18T20:24:36.628Z,71.70
2022-10-18T20:27:03.367Z,71.80
2022-10-18T20:29:30.613Z,71.70
2022-10-18T20:32:01.929Z,71.80
2022-10-18T20:34:31.006Z,71.70
2022-10-18T20:37:00.107Z,71.70
2022-10-18T20:39:31.456Z,71.70
2022-10-18T20:41:58.204Z,71.70
2022-10-18T20:44:26.714Z,71.70
2022-10-18T20:46:55.750Z,71.70
2022-10-18T20:49:25.073Z,71.70
2022-10-18T20:51:51.842Z,71.70
2022-10-18T20:54:21.361Z,71.70
2022-10-18T20:56:51.534Z,71.70
2022-10-18T20:59:22.994Z,71.70
2022-10-18T21:01:49.824Z,71.80
2022-10-18T21:04:16.676Z,71.80
2022-10-18T21:06:44.831Z,71.80
2022-10-18T21:09:21.343Z,71.90
2022-10-18T21:11:51.293Z,71.90
2022-10-18T21:14:25.661Z,71.80
2022-10-18T21:16:53.103Z,71.90
2022-10-18T21:19:26.274Z,72.00
2022-10-18T21:21:56.757Z,72.00
2022-10-18T21:24:25.661Z,72.00
2022-10-18T21:26:54.789Z,72.00
2022-10-18T21:29:26.912Z,72.00
2022-10-18T21:31:59.604Z,72.00
2022-10-18T21:34:28.707Z,72.10
2022-10-18T21:36:55.480Z,72.00
2022-10-18T21:41:58.455Z,72.00
2022-10-18T21:44:27.378Z,72.00
2022-10-18T21:46:56.867Z,72.00
2022-10-18T21:49:28.473Z,72.10
2022-10-18T21:51:58.137Z,72.10
2022-10-18T21:54:24.808Z,72.70
2022-10-18T21:56:53.830Z,72.10
2022-10-18T21:59:23.111Z,72.20
2022-10-18T22:01:51.955Z,72.10
2022-10-18T22:04:23.276Z,72.10
2022-10-18T22:06:52.982Z,72.00
2022-10-18T22:09:21.047Z,72.10
2022-10-18T22:11:52.796Z,72.10
2022-10-18T22:14:22.604Z,72.00
2022-10-18T22:16:52.247Z,72.00
2022-10-18T22:19:19.306Z,72.00
2022-10-18T22:21:48.709Z,71.90
2022-10-18T22:24:18.462Z,72.00
2022-10-18T22:26:46.621Z,72.00
2022-10-18T22:29:20.291Z,72.00
2022-10-18T22:31:54.284Z,72.70
2022-10-18T22:34:27.343Z,72.00
2022-10-18T22:36:56.759Z,72.00
2022-10-18T22:39:25.863Z,72.00
2022-10-18T22:41:55.902Z,72.10
2022-10-18T22:44:25.513Z,72.00
2022-10-18T22:46:52.364Z,72.00
2022-10-18T22:49:19.096Z,72.00
2022-10-18T22:51:48.369Z,72.00
2022-10-18T22:54:19.766Z,72.10
2022-10-18T22:56:46.474Z,72.10
2022-10-18T22:59:15.364Z,72.10
2022-10-18T23:01:44.343Z,72.10
2022-10-18T23:04:11.095Z,72.10
2022-10-18T23:06:42.403Z,72.00
2022-10-18T23:09:11.318Z,72.10
2022-10-18T23:11:38.352Z,72.10
2022-10-18T23:14:10.101Z,72.10
2022-10-18T23:16:36.907Z,72.10
2022-10-18T23:19:08.648Z,72.10
2022-10-18T23:21:37.906Z,72.20
2022-10-18T23:24:04.681Z,72.20
2022-10-18T23:26:36.026Z,72.10
2022-10-18T23:29:02.864Z,72.10
2022-10-18T23:31:33.779Z,72.10
2022-10-18T23:34:07.656Z,72.20
2022-10-18T23:36:36.818Z,72.20
2022-10-18T23:39:04.516Z,72.20
2022-10-18T23:41:35.858Z,72.20
2022-10-18T23:44:08.935Z,72.20
2022-10-18T23:46:37.796Z,72.20
2022-10-18T23:49:04.557Z,72.20
2022-10-18T23:51:33.386Z,72.20
2022-10-18T23:54:00.164Z,72.80
2022-10-18T23:56:29.883Z,72.20
2022-10-18T23:58:58.778Z,72.20
